Aérodrome :
LOGIN :

S'inscrire | Disclaimer

   EN    FR    IT 

 










Légende :    VFR   VFR Marginal   IFR   IFR Intensif   IFR Très Intensif
Visi : 
Plafond : 
>= 8 km
>= 3000ft
5 à 8 km
1000 à 3000 ft
1500m à 5 km
500 à 1000 ft
800 à 1500m
200 à 500 ft
< 800m
< 200 ft
Symboles :   Orages  Brouillard  Fortes neiges  Fortes précipitations  Vent > 20 kt
SIGMETs :   Divers  Orages  Givrage  Turbulence  Onde Orograph.  Cendres Volcan.







- Altitude de l'aérodrome : 436 ft
- Code IATA : BTS


LZIB - Bratislava

DERNIER METAR :
  • 161700Z 30010KT CAVOK 27/15 Q1019 NOSIG

METARs EXPIRÉS :
  • 161630Z 31013KT CAVOK 28/15 Q1019 NOSIG
  • 161600Z 30012KT 270V330 CAVOK 28/16 Q1019 NOSIG
  • 161530Z 30010KT 270V330 CAVOK 28/16 Q1019 NOSIG
  • 161500Z 32012KT CAVOK 28/16 Q1019 NOSIG
  • 161430Z 32015KT 9999 FEW060 FEW060CB 29/18 Q1019 NOSIG

TAF AMD TAF LZIB
Valide du 16 à 13h jusqu'au 17 à 12h UTC


161302Z 1613/1712 31012KT CAVOK
TEMPO 1613/1618 32015G25KT 9999 -TSRA FEW050CB SCT060
PROB30
TEMPO 1613/1615 4500 TSRA SCT040 SCT050CB
BECMG 1618/1620 34008KT
PROB40
TEMPO 1618/1701 9999 -SHRA FEW050TCU BKN090
BECMG 1708/1710 32005KT 9999 FEW045
Pas de NOTAMs connus pour ce terrain.



MET'MAP, la Météo Aéronautique d'un coup d'oeil ! - Copyright ORBIFLY Décembre 2007 - Disclaimer

ORBIFLY MET'MAP TEAM :

Programmation & Développement : Alexandra Zaïnal
Conception & Développement : Baudouin d'Aumeries
Co-Programmation & Développement : Marc-Olivier Méhu
Soutien technique & logistique : Manuel Goepfert

Contact : metmap@orbifly.com




SOURCES & CREDITS :

   NOAA